Aviation Digital Data Service (ADDS)

Output produced by METARs form (1210 UTC 19 January 2019)
found at http://www.aviationweather.gov/metar/data/
 
METAR text: SBFL 191200Z 29002KT 9999 FEW040 BKN100 27/23 Q1010
Conditions at: SBFL (FLORIANOPOLIS AR, BR) observed 1200 UTC 19 January 2019
Temperature: 27.0°C (81°F)
Dewpoint: 23.0°C (73°F) [RH = 79%]
Pressure (altimeter): 29.82 inches Hg (1010.0 mb)
Winds: from the WNW (290 degrees) at 2 MPH (2 knots; 1.0 m/s)
Visibility: 6 or more miles (10+ km)
Ceiling: 10000 feet AGL
Clouds: few clouds at 4000 feet AGL
broken clouds at 10000 feet AGL
Weather: no significant weather observed at this time

METAR text: SBFL 191100Z 35007KT 9999 FEW040 BKN100 27/23 Q1009
Conditions at: SBFL (FLORIANOPOLIS AR, BR) observed 1100 UTC 19 January 2019
Temperature: 27.0°C (81°F)
Dewpoint: 23.0°C (73°F) [RH = 79%]
Pressure (altimeter): 29.79 inches Hg (1009.0 mb)
Winds: from the N (350 degrees) at 8 MPH (7 knots; 3.6 m/s)
Visibility: 6 or more miles (10+ km)
Ceiling: 10000 feet AGL
Clouds: few clouds at 4000 feet AGL
broken clouds at 10000 feet AGL
Weather: no significant weather observed at this time

METAR text: SBFL 191000Z 36010KT 9999 FEW040 BKN100 27/23 Q1009
Conditions at: SBFL (FLORIANOPOLIS AR, BR) observed 1000 UTC 19 January 2019
Temperature: 27.0°C (81°F)
Dewpoint: 23.0°C (73°F) [RH = 79%]
Pressure (altimeter): 29.79 inches Hg (1009.0 mb)
Winds: from the N (360 degrees) at 12 MPH (10 knots; 5.1 m/s)
Visibility: 6 or more miles (10+ km)
Ceiling: 10000 feet AGL
Clouds: few clouds at 4000 feet AGL
broken clouds at 10000 feet AGL
Weather: no significant weather observed at this time

METAR text: SBFL 190900Z 36006KT 9999 FEW030 26/22 Q1009
Conditions at: SBFL (FLORIANOPOLIS AR, BR) observed 0900 UTC 19 January 2019
Temperature: 26.0°C (79°F)
Dewpoint: 22.0°C (72°F) [RH = 79%]
Pressure (altimeter): 29.79 inches Hg (1009.0 mb)
Winds: from the N (360 degrees) at 7 MPH (6 knots; 3.1 m/s)
Visibility: 6 or more miles (10+ km)
Ceiling: at least 12,000 feet AGL
Clouds: few clouds at 3000 feet AGL
Weather: no significant weather observed at this time

METAR text: SBFL 190800Z 36009KT 9999 FEW023 26/23 Q1008
Conditions at: SBFL (FLORIANOPOLIS AR, BR) observed 0800 UTC 19 January 2019
Temperature: 26.0°C (79°F)
Dewpoint: 23.0°C (73°F) [RH = 84%]
Pressure (altimeter): 29.76 inches Hg (1008.0 mb)
Winds: from the N (360 degrees) at 10 MPH (9 knots; 4.6 m/s)
Visibility: 6 or more miles (10+ km)
Ceiling: at least 12,000 feet AGL
Clouds: few clouds at 2300 feet AGL
Weather: no significant weather observed at this time

METAR text: SBFL 190700Z 36008KT 9999 FEW020 25/23 Q1008
Conditions at: SBFL (FLORIANOPOLIS AR, BR) observed 0700 UTC 19 January 2019
Temperature: 25.0°C (77°F)
Dewpoint: 23.0°C (73°F) [RH = 89%]
Pressure (altimeter): 29.76 inches Hg (1008.0 mb)
Winds: from the N (360 degrees) at 9 MPH (8 knots; 4.1 m/s)
Visibility: 6 or more miles (10+ km)
Ceiling: at least 12,000 feet AGL
Clouds: few clouds at 2000 feet AGL
Weather: no significant weather observed at this time

METAR text: SBFL 190600Z 35009KT 9999 FEW015 25/22 Q1008
Conditions at: SBFL (FLORIANOPOLIS AR, BR) observed 0600 UTC 19 January 2019
Temperature: 25.0°C (77°F)
Dewpoint: 22.0°C (72°F) [RH = 83%]
Pressure (altimeter): 29.76 inches Hg (1008.0 mb)
Winds: from the N (350 degrees) at 10 MPH (9 knots; 4.6 m/s)
Visibility: 6 or more miles (10+ km)
Ceiling: at least 12,000 feet AGL
Clouds: few clouds at 1500 feet AGL
Weather: no significant weather observed at this time

METAR text: SBFL 190500Z 33011KT 9999 FEW013 25/23 Q1008
Conditions at: SBFL (FLORIANOPOLIS AR, BR) observed 0500 UTC 19 January 2019
Temperature: 25.0°C (77°F)
Dewpoint: 23.0°C (73°F) [RH = 89%]
Pressure (altimeter): 29.76 inches Hg (1008.0 mb)
Winds: from the NNW (330 degrees) at 13 MPH (11 knots; 5.7 m/s)
Visibility: 6 or more miles (10+ km)
Ceiling: at least 12,000 feet AGL
Clouds: few clouds at 1300 feet AGL
Weather: no significant weather observed at this time

METAR text: SBFL 190400Z 36008KT 9999 SCT013 26/24 Q1009
Conditions at: SBFL (FLORIANOPOLIS AR, BR) observed 0400 UTC 19 January 2019
Temperature: 26.0°C (79°F)
Dewpoint: 24.0°C (75°F) [RH = 89%]
Pressure (altimeter): 29.79 inches Hg (1009.0 mb)
Winds: from the N (360 degrees) at 9 MPH (8 knots; 4.1 m/s)
Visibility: 6 or more miles (10+ km)
Ceiling: at least 12,000 feet AGL
Clouds: scattered clouds at 1300 feet AGL
Weather: no significant weather observed at this time

METAR text: SBFL 190300Z 03004KT 9999 FEW015 BKN100 26/24 Q1011
Conditions at: SBFL (FLORIANOPOLIS AR, BR) observed 0300 UTC 19 January 2019
Temperature: 26.0°C (79°F)
Dewpoint: 24.0°C (75°F) [RH = 89%]
Pressure (altimeter): 29.85 inches Hg (1011.0 mb)
Winds: from the NNE (30 degrees) at 5 MPH (4 knots; 2.1 m/s)
Visibility: 6 or more miles (10+ km)
Ceiling: 10000 feet AGL
Clouds: few clouds at 1500 feet AGL
broken clouds at 10000 feet AGL
Weather: no significant weather observed at this time

METAR text: SBFL 190200Z 01006KT 9999 FEW030 BKN100 26/23 Q1012 RETS
Conditions at: SBFL (FLORIANOPOLIS AR, BR) observed 0200 UTC 19 January 2019
Temperature: 26.0°C (79°F)
Dewpoint: 23.0°C (73°F) [RH = 84%]
Pressure (altimeter): 29.88 inches Hg (1012.0 mb)
Winds: from the N (10 degrees) at 7 MPH (6 knots; 3.1 m/s)
Visibility: 6 or more miles (10+ km)
Ceiling: 10000 feet AGL
Clouds: few clouds at 3000 feet AGL
broken clouds at 10000 feet AGL
Weather: no significant weather observed at this time

METAR text: SBFL 190105Z 36011KT 9999 -RA FEW030 SCT050 26/23 Q1011 RETS
Conditions at: SBFL (FLORIANOPOLIS AR, BR) observed 0105 UTC 19 January 2019
Temperature: 26.0°C (79°F)
Dewpoint: 23.0°C (73°F) [RH = 84%]
Pressure (altimeter): 29.85 inches Hg (1011.0 mb)
Winds: from the N (360 degrees) at 13 MPH (11 knots; 5.7 m/s)
Visibility: 6 or more miles (10+ km)
Ceiling: at least 12,000 feet AGL
Clouds: few clouds at 3000 feet AGL
scattered clouds at 5000 feet AGL
Weather: -RA  (light rain)

METAR text: SBFL 190100Z 36011KT 9999 -TSRA FEW030 FEW035CB SCT050 26/23 Q1 011
Conditions at: SBFL (FLORIANOPOLIS AR, BR) observed 0100 UTC 19 January 2019
Temperature: 26.0°C (79°F)
Dewpoint: 23.0°C (73°F) [RH = 84%]
Pressure (altimeter): missing
Winds: from the N (360 degrees) at 13 MPH (11 knots; 5.7 m/s)
Visibility: 6 or more miles (10+ km)
Ceiling: at least 12,000 feet AGL
Clouds: few clouds at 3000 feet AGL
few clouds at 3500 feet AGL
scattered clouds at 5000 feet AGL
Weather: -TSRA  (light rain associated with thunderstorm(s))

METAR text: SBFL 190000Z 01008KT 9999 -TSRA SCT030 FEW035CB BKN050 26/24 Q1 011
Conditions at: SBFL (FLORIANOPOLIS AR, BR) observed 0000 UTC 19 January 2019
Temperature: 26.0°C (79°F)
Dewpoint: 24.0°C (75°F) [RH = 89%]
Pressure (altimeter): missing
Winds: from the N (10 degrees) at 9 MPH (8 knots; 4.1 m/s)
Visibility: 6 or more miles (10+ km)
Ceiling: 5000 feet AGL
Clouds: scattered clouds at 3000 feet AGL
few clouds at 3500 feet AGL
broken clouds at 5000 feet AGL
Weather: -TSRA  (light rain associated with thunderstorm(s))

METAR text: SBFL 182300Z 01014KT 9999 TS FEW030 FEW035CB BKN050 28/24 Q1011
Conditions at: SBFL (FLORIANOPOLIS AR, BR) observed 2300 UTC 18 January 2019
Temperature: 28.0°C (82°F)
Dewpoint: 24.0°C (75°F) [RH = 79%]
Pressure (altimeter): 29.85 inches Hg (1011.0 mb)
Winds: from the N (10 degrees) at 16 MPH (14 knots; 7.2 m/s)
Visibility: 6 or more miles (10+ km)
Ceiling: 5000 feet AGL
Clouds: few clouds at 3000 feet AGL
few clouds at 3500 feet AGL
broken clouds at 5000 feet AGL
Weather: TS  (thunderstorm)

METAR text: SBFL 182235Z 01010KT 9999 TS SCT030 FEW035CB BKN050 28/24 Q 1011
Conditions at: SBFL (FLORIANOPOLIS AR, BR) observed 2235 UTC 18 January 2019
Temperature: 28.0°C (82°F)
Dewpoint: 24.0°C (75°F) [RH = 79%]
Pressure (altimeter): missing
Winds: from the N (10 degrees) at 12 MPH (10 knots; 5.1 m/s)
Visibility: 6 or more miles (10+ km)
Ceiling: 5000 feet AGL
Clouds: scattered clouds at 3000 feet AGL
few clouds at 3500 feet AGL
broken clouds at 5000 feet AGL
Weather: TS  (thunderstorm)

METAR text: SBFL 182200Z 35008KT 9999 FEW025 28/23 Q1011
Conditions at: SBFL (FLORIANOPOLIS AR, BR) observed 2200 UTC 18 January 2019
Temperature: 28.0°C (82°F)
Dewpoint: 23.0°C (73°F) [RH = 74%]
Pressure (altimeter): 29.85 inches Hg (1011.0 mb)
Winds: from the N (350 degrees) at 9 MPH (8 knots; 4.1 m/s)
Visibility: 6 or more miles (10+ km)
Ceiling: at least 12,000 feet AGL
Clouds: few clouds at 2500 feet AGL
Weather: no significant weather observed at this time

METAR text: SBFL 182100Z 03009KT 9999 FEW025 29/23 Q1010
Conditions at: SBFL (FLORIANOPOLIS AR, BR) observed 2100 UTC 18 January 2019
Temperature: 29.0°C (84°F)
Dewpoint: 23.0°C (73°F) [RH = 70%]
Pressure (altimeter): 29.82 inches Hg (1010.0 mb)
Winds: from the NNE (30 degrees) at 10 MPH (9 knots; 4.6 m/s)
Visibility: 6 or more miles (10+ km)
Ceiling: at least 12,000 feet AGL
Clouds: few clouds at 2500 feet AGL
Weather: no significant weather observed at this time

METAR text: SBFL 182000Z 03007KT 9999 FEW025 30/24 Q1010
Conditions at: SBFL (FLORIANOPOLIS AR, BR) observed 2000 UTC 18 January 2019
Temperature: 30.0°C (86°F)
Dewpoint: 24.0°C (75°F) [RH = 70%]
Pressure (altimeter): 29.82 inches Hg (1010.0 mb)
Winds: from the NNE (30 degrees) at 8 MPH (7 knots; 3.6 m/s)
Visibility: 6 or more miles (10+ km)
Ceiling: at least 12,000 feet AGL
Clouds: few clouds at 2500 feet AGL
Weather: no significant weather observed at this time

METAR text: SBFL 181900Z 02006KT 9999 FEW025 30/24 Q1010
Conditions at: SBFL (FLORIANOPOLIS AR, BR) observed 1900 UTC 18 January 2019
Temperature: 30.0°C (86°F)
Dewpoint: 24.0°C (75°F) [RH = 70%]
Pressure (altimeter): 29.82 inches Hg (1010.0 mb)
Winds: from the NNE (20 degrees) at 7 MPH (6 knots; 3.1 m/s)
Visibility: 6 or more miles (10+ km)
Ceiling: at least 12,000 feet AGL
Clouds: few clouds at 2500 feet AGL
Weather: no significant weather observed at this time

METAR text: SBFL 181800Z 05004KT 9999 FEW020 30/23 Q1011
Conditions at: SBFL (FLORIANOPOLIS AR, BR) observed 1800 UTC 18 January 2019
Temperature: 30.0°C (86°F)
Dewpoint: 23.0°C (73°F) [RH = 66%]
Pressure (altimeter): 29.85 inches Hg (1011.0 mb)
Winds: from the NE (50 degrees) at 5 MPH (4 knots; 2.1 m/s)
Visibility: 6 or more miles (10+ km)
Ceiling: at least 12,000 feet AGL
Clouds: few clouds at 2000 feet AGL
Weather: no significant weather observed at this time

METAR text: SBFL 181700Z 12004KT 9999 FEW020 SCT100 29/24 Q1013
Conditions at: SBFL (FLORIANOPOLIS AR, BR) observed 1700 UTC 18 January 2019
Temperature: 29.0°C (84°F)
Dewpoint: 24.0°C (75°F) [RH = 74%]
Pressure (altimeter): 29.91 inches Hg (1013.0 mb)
Winds: from the ESE (120 degrees) at 5 MPH (4 knots; 2.1 m/s)
Visibility: 6 or more miles (10+ km)
Ceiling: at least 12,000 feet AGL
Clouds: few clouds at 2000 feet AGL
scattered clouds at 10000 feet AGL
Weather: no significant weather observed at this time

METAR text: SBFL 181600Z 12005KT 9999 BKN030 FEW035TCU 28/24 Q1014
Conditions at: SBFL (FLORIANOPOLIS AR, BR) observed 1600 UTC 18 January 2019
Temperature: 28.0°C (82°F)
Dewpoint: 24.0°C (75°F) [RH = 79%]
Pressure (altimeter): 29.94 inches Hg (1014.0 mb)
Winds: from the ESE (120 degrees) at 6 MPH (5 knots; 2.6 m/s)
Visibility: 6 or more miles (10+ km)
Ceiling: 3000 feet AGL
Clouds: broken clouds at 3000 feet AGL
few clouds at 3500 feet AGL
Weather: no significant weather observed at this time

METAR text: SBFL 181500Z 06003KT 9999 BKN030 FEW035TCU 29/24 Q1014
Conditions at: SBFL (FLORIANOPOLIS AR, BR) observed 1500 UTC 18 January 2019
Temperature: 29.0°C (84°F)
Dewpoint: 24.0°C (75°F) [RH = 74%]
Pressure (altimeter): 29.94 inches Hg (1014.0 mb)
Winds: from the ENE (60 degrees) at 3 MPH (3 knots; 1.5 m/s)
Visibility: 6 or more miles (10+ km)
Ceiling: 3000 feet AGL
Clouds: broken clouds at 3000 feet AGL
few clouds at 3500 feet AGL
Weather: no significant weather observed at this time

METAR text: SBFL 181400Z 14003KT 9999 FEW015 BKN025 28/24 Q1014
Conditions at: SBFL (FLORIANOPOLIS AR, BR) observed 1400 UTC 18 January 2019
Temperature: 28.0°C (82°F)
Dewpoint: 24.0°C (75°F) [RH = 79%]
Pressure (altimeter): 29.94 inches Hg (1014.0 mb)
Winds: from the SE (140 degrees) at 3 MPH (3 knots; 1.5 m/s)
Visibility: 6 or more miles (10+ km)
Ceiling: 2500 feet AGL
Clouds: few clouds at 1500 feet AGL
broken clouds at 2500 feet AGL
Weather: no significant weather observed at this time

METAR text: SBFL 181300Z 27003KT 9999 BKN015 FEW015 27/23 Q1015
Conditions at: SBFL (FLORIANOPOLIS AR, BR) observed 1300 UTC 18 January 2019
Temperature: 27.0°C (81°F)
Dewpoint: 23.0°C (73°F) [RH = 79%]
Pressure (altimeter): 29.97 inches Hg (1015.0 mb)
Winds: from the W (270 degrees) at 3 MPH (3 knots; 1.5 m/s)
Visibility: 6 or more miles (10+ km)
Ceiling: 1500 feet AGL
Clouds: broken clouds at 1500 feet AGL
few clouds at 1500 feet AGL
Weather: no significant weather observed at this time

METAR text: SBFL 181200Z 24006KT 9999 SCT015 SCT025 26/23 Q1014
Conditions at: SBFL (FLORIANOPOLIS AR, BR) observed 1200 UTC 18 January 2019
Temperature: 26.0°C (79°F)
Dewpoint: 23.0°C (73°F) [RH = 84%]
Pressure (altimeter): 29.94 inches Hg (1014.0 mb)
Winds: from the WSW (240 degrees) at 7 MPH (6 knots; 3.1 m/s)
Visibility: 6 or more miles (10+ km)
Ceiling: at least 12,000 feet AGL
Clouds: scattered clouds at 1500 feet AGL
scattered clouds at 2500 feet AGL
Weather: no significant weather observed at this time

METAR text: SBFL 181100Z 24005KT 9999 SCT018 BKN035 27/24 Q1014
Conditions at: SBFL (FLORIANOPOLIS AR, BR) observed 1100 UTC 18 January 2019
Temperature: 27.0°C (81°F)
Dewpoint: 24.0°C (75°F) [RH = 84%]
Pressure (altimeter): 29.94 inches Hg (1014.0 mb)
Winds: from the WSW (240 degrees) at 6 MPH (5 knots; 2.6 m/s)
Visibility: 6 or more miles (10+ km)
Ceiling: 3500 feet AGL
Clouds: scattered clouds at 1800 feet AGL
broken clouds at 3500 feet AGL
Weather: no significant weather observed at this time

METAR text: SBFL 181000Z 25005KT 9999 FEW020 BKN035 25/23 Q1014
Conditions at: SBFL (FLORIANOPOLIS AR, BR) observed 1000 UTC 18 January 2019
Temperature: 25.0°C (77°F)
Dewpoint: 23.0°C (73°F) [RH = 89%]
Pressure (altimeter): 29.94 inches Hg (1014.0 mb)
Winds: from the WSW (250 degrees) at 6 MPH (5 knots; 2.6 m/s)
Visibility: 6 or more miles (10+ km)
Ceiling: 3500 feet AGL
Clouds: few clouds at 2000 feet AGL
broken clouds at 3500 feet AGL
Weather: no significant weather observed at this time

METAR text: SBFL 180900Z 23005KT 9999 FEW020 BKN030 25/22 Q1014
Conditions at: SBFL (FLORIANOPOLIS AR, BR) observed 0900 UTC 18 January 2019
Temperature: 25.0°C (77°F)
Dewpoint: 22.0°C (72°F) [RH = 83%]
Pressure (altimeter): 29.94 inches Hg (1014.0 mb)
Winds: from the SW (230 degrees) at 6 MPH (5 knots; 2.6 m/s)
Visibility: 6 or more miles (10+ km)
Ceiling: 3000 feet AGL
Clouds: few clouds at 2000 feet AGL
broken clouds at 3000 feet AGL
Weather: no significant weather observed at this time

METAR text: SBFL 180800Z 00000KT 9999 SCT030 24/23 Q1012
Conditions at: SBFL (FLORIANOPOLIS AR, BR) observed 0800 UTC 18 January 2019
Temperature: 24.0°C (75°F)
Dewpoint: 23.0°C (73°F) [RH = 94%]
Pressure (altimeter): 29.88 inches Hg (1012.0 mb)
Winds: calm
Visibility: 6 or more miles (10+ km)
Ceiling: at least 12,000 feet AGL
Clouds: scattered clouds at 3000 feet AGL
Weather: no significant weather observed at this time

METAR text: SBFL 180700Z 23002KT 9999 SCT030 24/23 Q1012
Conditions at: SBFL (FLORIANOPOLIS AR, BR) observed 0700 UTC 18 January 2019
Temperature: 24.0°C (75°F)
Dewpoint: 23.0°C (73°F) [RH = 94%]
Pressure (altimeter): 29.88 inches Hg (1012.0 mb)
Winds: from the SW (230 degrees) at 2 MPH (2 knots; 1.0 m/s)
Visibility: 6 or more miles (10+ km)
Ceiling: at least 12,000 feet AGL
Clouds: scattered clouds at 3000 feet AGL
Weather: no significant weather observed at this time

METAR text: SBFL 180600Z 00000KT 9999 SCT030 24/23 Q1013
Conditions at: SBFL (FLORIANOPOLIS AR, BR) observed 0600 UTC 18 January 2019
Temperature: 24.0°C (75°F)
Dewpoint: 23.0°C (73°F) [RH = 94%]
Pressure (altimeter): 29.91 inches Hg (1013.0 mb)
Winds: calm
Visibility: 6 or more miles (10+ km)
Ceiling: at least 12,000 feet AGL
Clouds: scattered clouds at 3000 feet AGL
Weather: no significant weather observed at this time

METAR text: SBFL 180500Z 25003KT 9999 BKN030 24/23 Q1015
Conditions at: SBFL (FLORIANOPOLIS AR, BR) observed 0500 UTC 18 January 2019
Temperature: 24.0°C (75°F)
Dewpoint: 23.0°C (73°F) [RH = 94%]
Pressure (altimeter): 29.97 inches Hg (1015.0 mb)
Winds: from the WSW (250 degrees) at 3 MPH (3 knots; 1.5 m/s)
Visibility: 6 or more miles (10+ km)
Ceiling: 3000 feet AGL
Clouds: broken clouds at 3000 feet AGL
Weather: no significant weather observed at this time

METAR text: SBFL 180400Z 14005KT 9999 BKN030 25/23 Q1016
Conditions at: SBFL (FLORIANOPOLIS AR, BR) observed 0400 UTC 18 January 2019
Temperature: 25.0°C (77°F)
Dewpoint: 23.0°C (73°F) [RH = 89%]
Pressure (altimeter): 30.00 inches Hg (1016.0 mb)
Winds: from the SE (140 degrees) at 6 MPH (5 knots; 2.6 m/s)
Visibility: 6 or more miles (10+ km)
Ceiling: 3000 feet AGL
Clouds: broken clouds at 3000 feet AGL
Weather: no significant weather observed at this time

METAR text: SBFL 180300Z 14004KT 9999 BKN030 25/23 Q1016
Conditions at: SBFL (FLORIANOPOLIS AR, BR) observed 0300 UTC 18 January 2019
Temperature: 25.0°C (77°F)
Dewpoint: 23.0°C (73°F) [RH = 89%]
Pressure (altimeter): 30.00 inches Hg (1016.0 mb)
Winds: from the SE (140 degrees) at 5 MPH (4 knots; 2.1 m/s)
Visibility: 6 or more miles (10+ km)
Ceiling: 3000 feet AGL
Clouds: broken clouds at 3000 feet AGL
Weather: no significant weather observed at this time

METAR text: SBFL 180200Z 22007KT 9999 -RA BKN035 25/23 Q1016
Conditions at: SBFL (FLORIANOPOLIS AR, BR) observed 0200 UTC 18 January 2019
Temperature: 25.0°C (77°F)
Dewpoint: 23.0°C (73°F) [RH = 89%]
Pressure (altimeter): 30.00 inches Hg (1016.0 mb)
Winds: from the SW (220 degrees) at 8 MPH (7 knots; 3.6 m/s)
Visibility: 6 or more miles (10+ km)
Ceiling: 3500 feet AGL
Clouds: broken clouds at 3500 feet AGL
Weather: -RA  (light rain)

METAR text: SBFL 180100Z 00000KT 9999 BKN035 FEW040TCU 25/23 Q1017
Conditions at: SBFL (FLORIANOPOLIS AR, BR) observed 0100 UTC 18 January 2019
Temperature: 25.0°C (77°F)
Dewpoint: 23.0°C (73°F) [RH = 89%]
Pressure (altimeter): 30.03 inches Hg (1017.0 mb)
Winds: calm
Visibility: 6 or more miles (10+ km)
Ceiling: 3500 feet AGL
Clouds: broken clouds at 3500 feet AGL
few clouds at 4000 feet AGL
Weather: no significant weather observed at this time

Forecast for: SBFL (FLORIANOPOLIS AR, BR)
Text: TAF SBFL 190845Z 1912/2012 35008KT 9999 BKN025 FEW030TCU TX27/1916Z T N23/2008Z
Forecast period: 1200 UTC 19 January 2019 to 1200 UTC 20 January 2019
Forecast type: FROM: standard forecast or significant change
Winds: from the N (350 degrees) at 9 MPH (8 knots; 4.1 m/s)
Visibility: 6 or more miles 10+ km)
Ceiling: 2500 feet AGL
Clouds: broken clouds at 2500 feet AGL
few clouds at 3000 feet AGL
Weather: no significant weather forecast for this period
Text: TEMPO 1915/2002 20010KT 7000 TSRA SCT010 BKN025 FEW040CB
Forecast period: 1500 UTC 19 January 2019 to 0200 UTC 20 January 2019
Forecast type: TEMPORARY: The following changes expected for less than half the time period
Winds: from the SSW (200 degrees) at 12 MPH (10 knots; 5.1 m/s)
Visibility: 4 miles (7 km)
Ceiling: 2500 feet AGL
Clouds: scattered clouds at 1000 feet AGL
broken clouds at 2500 feet AGL
few clouds at 4000 feet AGL
Weather: TSRA  (rain associated with thunderstorm(s))
Text: BECMG 2002/ 2004 BKN015 RMK PEB
Forecast period: 1200 UTC 19 January 2019 to 1200 UTC 20 January 2019
Forecast type: FROM: standard forecast or significant change
Visibility: missing
Ceiling: unknown
Clouds: missing
Weather: no significant weather forecast for this period